GCRR METAR and TAF | Updated Today

GCRR METAR

Lanzarote Airport

Observation time: 24 min. ago

GCRR 292030Z 36010KT 9999 FEW025 SCT049 23/17 Q1017

Need help? Read our tutorial on how to read METARs or read the parsed version below.

Lanzarote Airport (GCRR) METAR

  • Weather conditions on Thu, 29 Sep 2022 20:30:00 +0000 (24 min. ago):
  • Present conditions: Dry
  • Clouds: A few at 762 meters; scattered at 1494 meters
  • Visibility: Greater than 10 km
  • Wind: 360 degrees at 10 knots
  • Temperature: 23 celsius
  • Dew point: 17 celsius
  • Pressure: 1017 millibars
  • Remarks: None


Useful to know...

GCRR TAF

Lanzarote Airport

TAF GCRR 291400Z 2915/3015 01016KT 9999 SCT040 TX25/3014Z TN20/3006Z PROB30 TEMPO 3003/3009 DZRA
Observation time: 6:54 hr. ago
Need help? Read our tutorial on how to read TAFs or read the parsed version below.

Parsed version of TAF for Lanzarote Airport (GCRR)

  • From 29 September at 15:00 UTC, to day 30 of the month at 15:00 UTC
  • Clouds: Scattered at 1219 meters
  • Visibility: Greater than 10 km
  • Wind: 10 degrees at 16
  • Expected to arise temporarily, from 30 September at 03:00 UTC, to day 30 of the month at 09:00 UTC
    Probability of 30%